sensor_id;sensor_type;location;lat;lon;timestamp;temperature;humidity
7388;DHT22;3735;50.136;11.062;2023-05-28T00:02:12;8.60;99.90
7388;DHT22;3735;50.136;11.062;2023-05-28T00:04:38;8.60;99.90
7388;DHT22;3735;50.136;11.062;2023-05-28T00:07:04;8.60;99.90
7388;DHT22;3735;50.136;11.062;2023-05-28T00:09:30;8.60;99.90
7388;DHT22;3735;50.136;11.062;2023-05-28T00:11:56;8.50;99.90
7388;DHT22;3735;50.136;11.062;2023-05-28T00:14:22;8.60;99.90
7388;DHT22;3735;50.136;11.062;2023-05-28T00:16:47;8.60;99.90
7388;DHT22;3735;50.136;11.062;2023-05-28T00:19:16;8.70;99.90
7388;DHT22;3735;50.136;11.062;2023-05-28T00:21:42;8.60;99.90
7388;DHT22;3735;50.136;11.062;2023-05-28T00:24:08;8.70;99.90
7388;DHT22;3735;50.136;11.062;2023-05-28T00:26:34;8.60;99.90
7388;DHT22;3735;50.136;11.062;2023-05-28T00:28:59;8.60;99.90
7388;DHT22;3735;50.136;11.062;2023-05-28T00:31:25;8.60;99.90
7388;DHT22;3735;50.136;11.062;2023-05-28T00:33:51;8.60;99.90
7388;DHT22;3735;50.136;11.062;2023-05-28T00:36:17;8.60;99.90
7388;DHT22;3735;50.136;11.062;2023-05-28T00:38:42;8.60;99.90
7388;DHT22;3735;50.136;11.062;2023-05-28T00:41:08;8.50;99.90
7388;DHT22;3735;50.136;11.062;2023-05-28T00:43:34;8.50;99.90
7388;DHT22;3735;50.136;11.062;2023-05-28T00:46:01;8.50;99.90
7388;DHT22;3735;50.136;11.062;2023-05-28T00:48:29;8.40;99.90
7388;DHT22;3735;50.136;11.062;2023-05-28T00:50:58;8.30;99.90
7388;DHT22;3735;50.136;11.062;2023-05-28T00:53:24;8.20;99.90
7388;DHT22;3735;50.136;11.062;2023-05-28T00:55:50;8.20;99.90
7388;DHT22;3735;50.136;11.062;2023-05-28T00:58:17;8.20;99.90
7388;DHT22;3735;50.136;11.062;2023-05-28T01:00:45;8.10;99.90
7388;DHT22;3735;50.136;11.062;2023-05-28T01:03:12;8.00;99.90
7388;DHT22;3735;50.136;11.062;2023-05-28T01:05:38;8.00;99.90
7388;DHT22;3735;50.136;11.062;2023-05-28T01:08:06;8.00;99.90
7388;DHT22;3735;50.136;11.062;2023-05-28T01:10:33;7.90;99.90
7388;DHT22;3735;50.136;11.062;2023-05-28T01:13:02;7.90;99.90
7388;DHT22;3735;50.136;11.062;2023-05-28T01:15:30;7.90;99.90
7388;DHT22;3735;50.136;11.062;2023-05-28T01:17:58;7.90;99.90
7388;DHT22;3735;50.136;11.062;2023-05-28T01:20:27;7.90;99.90
7388;DHT22;3735;50.136;11.062;2023-05-28T01:22:56;7.80;99.90
7388;DHT22;3735;50.136;11.062;2023-05-28T01:25:25;7.70;99.90
7388;DHT22;3735;50.136;11.062;2023-05-28T01:27:54;7.70;99.90
7388;DHT22;3735;50.136;11.062;2023-05-28T01:30:20;7.60;99.90
7388;DHT22;3735;50.136;11.062;2023-05-28T01:32:46;7.60;99.90
7388;DHT22;3735;50.136;11.062;2023-05-28T01:35:12;7.60;99.90
7388;DHT22;3735;50.136;11.062;2023-05-28T01:37:43;7.60;99.90
7388;DHT22;3735;50.136;11.062;2023-05-28T01:40:13;7.60;99.90
7388;DHT22;3735;50.136;11.062;2023-05-28T01:42:42;7.60;99.90
7388;DHT22;3735;50.136;11.062;2023-05-28T01:45:10;7.50;99.90
7388;DHT22;3735;50.136;11.062;2023-05-28T01:47:38;7.40;99.90
7388;DHT22;3735;50.136;11.062;2023-05-28T01:50:06;7.40;99.90
7388;DHT22;3735;50.136;11.062;2023-05-28T01:52:32;7.30;99.90
7388;DHT22;3735;50.136;11.062;2023-05-28T01:54:58;7.30;99.90
7388;DHT22;3735;50.136;11.062;2023-05-28T01:57:24;7.20;99.90
7388;DHT22;3735;50.136;11.062;2023-05-28T01:59:50;7.20;99.90
7388;DHT22;3735;50.136;11.062;2023-05-28T02:02:16;7.20;99.90
7388;DHT22;3735;50.136;11.062;2023-05-28T02:04:41;7.30;99.90
7388;DHT22;3735;50.136;11.062;2023-05-28T02:07:07;7.20;99.90
7388;DHT22;3735;50.136;11.062;2023-05-28T02:09:33;7.20;99.90
7388;DHT22;3735;50.136;11.062;2023-05-28T02:11:58;7.20;99.90
7388;DHT22;3735;50.136;11.062;2023-05-28T02:14:28;7.10;99.90
7388;DHT22;3735;50.136;11.062;2023-05-28T02:16:55;7.00;99.90
7388;DHT22;3735;50.136;11.062;2023-05-28T02:19:20;6.90;99.90
7388;DHT22;3735;50.136;11.062;2023-05-28T02:21:46;6.90;99.90
7388;DHT22;3735;50.136;11.062;2023-05-28T02:24:12;6.80;99.90
7388;DHT22;3735;50.136;11.062;2023-05-28T02:26:38;6.90;99.90
7388;DHT22;3735;50.136;11.062;2023-05-28T02:29:04;6.80;99.90
7388;DHT22;3735;50.136;11.062;2023-05-28T02:31:31;6.80;99.90
7388;DHT22;3735;50.136;11.062;2023-05-28T02:33:57;6.70;99.90
7388;DHT22;3735;50.136;11.062;2023-05-28T02:36:23;6.70;99.90
7388;DHT22;3735;50.136;11.062;2023-05-28T02:38:49;6.60;99.90
7388;DHT22;3735;50.136;11.062;2023-05-28T02:41:15;6.60;99.90
7388;DHT22;3735;50.136;11.062;2023-05-28T02:43:42;6.60;99.90
7388;DHT22;3735;50.136;11.062;2023-05-28T02:46:08;6.70;99.90
7388;DHT22;3735;50.136;11.062;2023-05-28T02:48:34;6.70;99.90
7388;DHT22;3735;50.136;11.062;2023-05-28T02:51:00;6.70;99.90
7388;DHT22;3735;50.136;11.062;2023-05-28T02:53:30;6.70;99.90
7388;DHT22;3735;50.136;11.062;2023-05-28T02:55:59;6.60;99.90
7388;DHT22;3735;50.136;11.062;2023-05-28T02:58:25;6.70;99.90
7388;DHT22;3735;50.136;11.062;2023-05-28T03:00:51;6.60;99.90
7388;DHT22;3735;50.136;11.062;2023-05-28T03:03:17;6.60;99.90
7388;DHT22;3735;50.136;11.062;2023-05-28T03:05:43;6.60;99.90
7388;DHT22;3735;50.136;11.062;2023-05-28T03:08:08;6.50;99.90
7388;DHT22;3735;50.136;11.062;2023-05-28T03:10:34;6.50;99.90
7388;DHT22;3735;50.136;11.062;2023-05-28T03:13:00;6.50;99.90
7388;DHT22;3735;50.136;11.062;2023-05-28T03:15:26;6.50;99.90
7388;DHT22;3735;50.136;11.062;2023-05-28T03:17:55;6.40;99.90
7388;DHT22;3735;50.136;11.062;2023-05-28T03:20:21;6.40;99.90
7388;DHT22;3735;50.136;11.062;2023-05-28T03:22:48;6.30;99.90
7388;DHT22;3735;50.136;11.062;2023-05-28T03:25:19;6.30;99.90
7388;DHT22;3735;50.136;11.062;2023-05-28T03:27:45;6.30;99.90
7388;DHT22;3735;50.136;11.062;2023-05-28T03:30:11;6.30;99.90
7388;DHT22;3735;50.136;11.062;2023-05-28T03:32:39;6.30;99.90
7388;DHT22;3735;50.136;11.062;2023-05-28T03:35:06;6.40;99.90
7388;DHT22;3735;50.136;11.062;2023-05-28T03:37:33;6.40;99.90
7388;DHT22;3735;50.136;11.062;2023-05-28T03:39:58;6.40;99.90
7388;DHT22;3735;50.136;11.062;2023-05-28T03:42:24;6.40;99.90
7388;DHT22;3735;50.136;11.062;2023-05-28T03:44:50;6.50;99.90
7388;DHT22;3735;50.136;11.062;2023-05-28T03:47:16;6.70;99.90
7388;DHT22;3735;50.136;11.062;2023-05-28T03:49:42;6.70;99.90
7388;DHT22;3735;50.136;11.062;2023-05-28T03:52:08;6.80;99.90
7388;DHT22;3735;50.136;11.062;2023-05-28T03:54:34;6.90;99.90
7388;DHT22;3735;50.136;11.062;2023-05-28T03:57:00;7.00;99.90
7388;DHT22;3735;50.136;11.062;2023-05-28T03:59:26;6.90;99.90
7388;DHT22;3735;50.136;11.062;2023-05-28T04:01:52;6.90;99.90
7388;DHT22;3735;50.136;11.062;2023-05-28T04:04:18;6.90;99.90
7388;DHT22;3735;50.136;11.062;2023-05-28T04:06:44;6.90;99.90
7388;DHT22;3735;50.136;11.062;2023-05-28T04:09:10;7.00;99.90
7388;DHT22;3735;50.136;11.062;2023-05-28T04:11:35;7.10;99.90
7388;DHT22;3735;50.136;11.062;2023-05-28T04:14:03;7.10;99.90
7388;DHT22;3735;50.136;11.062;2023-05-28T04:16:29;7.20;99.90
7388;DHT22;3735;50.136;11.062;2023-05-28T04:18:55;7.30;99.90
7388;DHT22;3735;50.136;11.062;2023-05-28T04:21:22;7.40;99.90
7388;DHT22;3735;50.136;11.062;2023-05-28T04:23:48;7.50;99.90
7388;DHT22;3735;50.136;11.062;2023-05-28T04:26:14;7.60;99.90
7388;DHT22;3735;50.136;11.062;2023-05-28T04:28:40;7.80;99.90
7388;DHT22;3735;50.136;11.062;2023-05-28T04:31:07;7.90;99.90
7388;DHT22;3735;50.136;11.062;2023-05-28T04:33:33;8.20;99.90
7388;DHT22;3735;50.136;11.062;2023-05-28T04:35:59;8.60;99.90
7388;DHT22;3735;50.136;11.062;2023-05-28T04:38:27;8.90;99.90
7388;DHT22;3735;50.136;11.062;2023-05-28T04:40:59;9.30;99.90
7388;DHT22;3735;50.136;11.062;2023-05-28T04:43:30;9.70;99.90
7388;DHT22;3735;50.136;11.062;2023-05-28T04:45:58;10.30;99.90
7388;DHT22;3735;50.136;11.062;2023-05-28T04:48:27;10.80;99.90
7388;DHT22;3735;50.136;11.062;2023-05-28T04:50:53;11.30;99.90
7388;DHT22;3735;50.136;11.062;2023-05-28T04:53:19;11.80;99.90
7388;DHT22;3735;50.136;11.062;2023-05-28T04:55:45;12.10;99.90
7388;DHT22;3735;50.136;11.062;2023-05-28T04:58:10;12.40;99.90
7388;DHT22;3735;50.136;11.062;2023-05-28T05:00:37;12.70;99.90
7388;DHT22;3735;50.136;11.062;2023-05-28T05:03:03;13.20;99.90
7388;DHT22;3735;50.136;11.062;2023-05-28T05:05:29;13.70;99.90
7388;DHT22;3735;50.136;11.062;2023-05-28T05:07:55;14.20;99.90
7388;DHT22;3735;50.136;11.062;2023-05-28T05:10:21;14.60;99.90
7388;DHT22;3735;50.136;11.062;2023-05-28T05:12:48;15.00;99.90
7388;DHT22;3735;50.136;11.062;2023-05-28T05:15:14;15.30;99.90
7388;DHT22;3735;50.136;11.062;2023-05-28T05:17:40;15.80;99.90
7388;DHT22;3735;50.136;11.062;2023-05-28T05:20:07;16.00;99.90
7388;DHT22;3735;50.136;11.062;2023-05-28T05:22:34;16.20;99.90
7388;DHT22;3735;50.136;11.062;2023-05-28T05:24:59;16.40;99.90
7388;DHT22;3735;50.136;11.062;2023-05-28T05:27:25;16.80;99.90
7388;DHT22;3735;50.136;11.062;2023-05-28T05:29:52;16.70;99.90
7388;DHT22;3735;50.136;11.062;2023-05-28T05:32:18;16.50;99.90
7388;DHT22;3735;50.136;11.062;2023-05-28T05:34:43;16.30;99.90
7388;DHT22;3735;50.136;11.062;2023-05-28T05:37:09;16.30;99.90
7388;DHT22;3735;50.136;11.062;2023-05-28T05:39:35;16.60;99.90
7388;DHT22;3735;50.136;11.062;2023-05-28T05:42:01;17.10;99.90
7388;DHT22;3735;50.136;11.062;2023-05-28T05:44:27;17.90;99.90
7388;DHT22;3735;50.136;11.062;2023-05-28T05:46:52;18.40;99.90
7388;DHT22;3735;50.136;11.062;2023-05-28T05:49:18;18.70;99.90
7388;DHT22;3735;50.136;11.062;2023-05-28T05:51:44;18.90;99.90
7388;DHT22;3735;50.136;11.062;2023-05-28T05:54:10;19.20;99.90
7388;DHT22;3735;50.136;11.062;2023-05-28T05:56:36;19.40;99.90
7388;DHT22;3735;50.136;11.062;2023-05-28T05:59:02;19.80;99.90
7388;DHT22;3735;50.136;11.062;2023-05-28T06:01:28;20.30;99.90
7388;DHT22;3735;50.136;11.062;2023-05-28T06:03:55;20.90;99.90
7388;DHT22;3735;50.136;11.062;2023-05-28T06:06:21;21.30;99.90
7388;DHT22;3735;50.136;11.062;2023-05-28T06:08:47;21.60;99.90
7388;DHT22;3735;50.136;11.062;2023-05-28T06:11:13;22.20;99.90
7388;DHT22;3735;50.136;11.062;2023-05-28T06:13:39;22.50;99.90
7388;DHT22;3735;50.136;11.062;2023-05-28T06:16:05;22.60;99.90
7388;DHT22;3735;50.136;11.062;2023-05-28T06:18:32;22.60;99.90
7388;DHT22;3735;50.136;11.062;2023-05-28T06:20:57;22.80;99.90
7388;DHT22;3735;50.136;11.062;2023-05-28T06:23:24;22.90;99.90
7388;DHT22;3735;50.136;11.062;2023-05-28T06:25:50;22.80;99.90
7388;DHT22;3735;50.136;11.062;2023-05-28T06:28:16;23.00;99.90
7388;DHT22;3735;50.136;11.062;2023-05-28T06:30:42;23.30;99.90
7388;DHT22;3735;50.136;11.062;2023-05-28T06:33:09;23.20;99.90
7388;DHT22;3735;50.136;11.062;2023-05-28T06:35:35;23.30;99.90
7388;DHT22;3735;50.136;11.062;2023-05-28T06:38:01;23.70;99.90
7388;DHT22;3735;50.136;11.062;2023-05-28T06:40:27;23.80;99.90
7388;DHT22;3735;50.136;11.062;2023-05-28T06:42:53;24.20;99.90
7388;DHT22;3735;50.136;11.062;2023-05-28T06:45:18;24.70;99.90
7388;DHT22;3735;50.136;11.062;2023-05-28T06:47:48;24.80;99.90
7388;DHT22;3735;50.136;11.062;2023-05-28T06:50:14;25.00;99.90
7388;DHT22;3735;50.136;11.062;2023-05-28T06:52:39;25.10;99.90
7388;DHT22;3735;50.136;11.062;2023-05-28T06:55:06;25.40;99.90
7388;DHT22;3735;50.136;11.062;2023-05-28T06:57:34;25.30;99.90
7388;DHT22;3735;50.136;11.062;2023-05-28T07:00:05;25.70;99.90
7388;DHT22;3735;50.136;11.062;2023-05-28T07:02:39;26.20;99.90
7388;DHT22;3735;50.136;11.062;2023-05-28T07:05:05;26.70;99.90
7388;DHT22;3735;50.136;11.062;2023-05-28T07:07:31;27.10;99.90
7388;DHT22;3735;50.136;11.062;2023-05-28T07:09:57;27.50;99.90
7388;DHT22;3735;50.136;11.062;2023-05-28T07:12:23;27.80;99.90
7388;DHT22;3735;50.136;11.062;2023-05-28T07:14:49;28.10;99.90
7388;DHT22;3735;50.136;11.062;2023-05-28T07:17:15;28.30;99.90
7388;DHT22;3735;50.136;11.062;2023-05-28T07:19:40;28.40;99.90
7388;DHT22;3735;50.136;11.062;2023-05-28T07:22:06;28.50;99.90
7388;DHT22;3735;50.136;11.062;2023-05-28T07:24:32;28.60;99.90
7388;DHT22;3735;50.136;11.062;2023-05-28T07:26:58;28.90;99.90
7388;DHT22;3735;50.136;11.062;2023-05-28T07:29:25;29.00;99.90
7388;DHT22;3735;50.136;11.062;2023-05-28T07:31:52;29.30;99.90
7388;DHT22;3735;50.136;11.062;2023-05-28T07:34:18;29.50;99.90
7388;DHT22;3735;50.136;11.062;2023-05-28T07:36:44;29.80;99.90
7388;DHT22;3735;50.136;11.062;2023-05-28T07:39:10;30.10;99.90
7388;DHT22;3735;50.136;11.062;2023-05-28T07:41:35;30.20;99.90
7388;DHT22;3735;50.136;11.062;2023-05-28T07:44:01;30.40;99.90
7388;DHT22;3735;50.136;11.062;2023-05-28T07:46:28;30.50;99.90
7388;DHT22;3735;50.136;11.062;2023-05-28T07:48:53;30.70;99.90
7388;DHT22;3735;50.136;11.062;2023-05-28T07:51:19;30.70;99.90
7388;DHT22;3735;50.136;11.062;2023-05-28T07:53:45;30.40;99.90
7388;DHT22;3735;50.136;11.062;2023-05-28T07:56:11;30.40;99.90
7388;DHT22;3735;50.136;11.062;2023-05-28T07:58:38;30.70;99.90
7388;DHT22;3735;50.136;11.062;2023-05-28T08:01:08;30.70;99.90
7388;DHT22;3735;50.136;11.062;2023-05-28T08:03:34;31.00;99.90
7388;DHT22;3735;50.136;11.062;2023-05-28T08:06:00;31.60;99.90
7388;DHT22;3735;50.136;11.062;2023-05-28T08:08:27;32.00;99.90
7388;DHT22;3735;50.136;11.062;2023-05-28T08:10:53;32.50;99.90
7388;DHT22;3735;50.136;11.062;2023-05-28T08:13:19;33.20;99.90
7388;DHT22;3735;50.136;11.062;2023-05-28T08:15:45;33.50;99.90
7388;DHT22;3735;50.136;11.062;2023-05-28T08:18:11;33.50;99.90
7388;DHT22;3735;50.136;11.062;2023-05-28T08:20:37;33.40;99.90
7388;DHT22;3735;50.136;11.062;2023-05-28T08:23:03;33.40;99.90
7388;DHT22;3735;50.136;11.062;2023-05-28T08:25:28;33.40;99.90
7388;DHT22;3735;50.136;11.062;2023-05-28T08:27:54;33.20;99.90
7388;DHT22;3735;50.136;11.062;2023-05-28T08:30:20;33.10;99.90
7388;DHT22;3735;50.136;11.062;2023-05-28T08:32:46;33.30;99.90
7388;DHT22;3735;50.136;11.062;2023-05-28T08:35:12;33.80;99.90
7388;DHT22;3735;50.136;11.062;2023-05-28T08:37:38;33.80;99.90
7388;DHT22;3735;50.136;11.062;2023-05-28T08:40:05;33.40;99.90
7388;DHT22;3735;50.136;11.062;2023-05-28T08:42:34;33.50;99.90
7388;DHT22;3735;50.136;11.062;2023-05-28T08:45:04;33.30;99.90
7388;DHT22;3735;50.136;11.062;2023-05-28T08:47:34;33.00;99.90
7388;DHT22;3735;50.136;11.062;2023-05-28T08:50:06;33.20;99.90
7388;DHT22;3735;50.136;11.062;2023-05-28T08:52:33;33.20;99.90
7388;DHT22;3735;50.136;11.062;2023-05-28T08:55:00;32.60;99.90
7388;DHT22;3735;50.136;11.062;2023-05-28T08:57:28;33.00;99.90
7388;DHT22;3735;50.136;11.062;2023-05-28T08:59:57;33.60;99.90
7388;DHT22;3735;50.136;11.062;2023-05-28T09:02:25;33.90;99.90
7388;DHT22;3735;50.136;11.062;2023-05-28T09:04:51;34.10;99.90
7388;DHT22;3735;50.136;11.062;2023-05-28T09:07:18;34.20;99.90
7388;DHT22;3735;50.136;11.062;2023-05-28T09:09:45;34.40;99.90
7388;DHT22;3735;50.136;11.062;2023-05-28T09:12:12;34.90;99.90
7388;DHT22;3735;50.136;11.062;2023-05-28T09:14:41;35.00;99.90
7388;DHT22;3735;50.136;11.062;2023-05-28T09:17:10;35.00;99.90
7388;DHT22;3735;50.136;11.062;2023-05-28T09:19:39;34.60;99.90
7388;DHT22;3735;50.136;11.062;2023-05-28T09:22:05;34.60;99.90
7388;DHT22;3735;50.136;11.062;2023-05-28T09:24:31;34.90;99.90
7388;DHT22;3735;50.136;11.062;2023-05-28T09:26:58;34.90;99.90
7388;DHT22;3735;50.136;11.062;2023-05-28T09:29:25;34.90;99.90
7388;DHT22;3735;50.136;11.062;2023-05-28T09:31:59;34.90;99.90
7388;DHT22;3735;50.136;11.062;2023-05-28T09:34:30;35.30;99.90
7388;DHT22;3735;50.136;11.062;2023-05-28T09:37:01;35.60;99.90
7388;DHT22;3735;50.136;11.062;2023-05-28T09:39:28;35.60;99.90
7388;DHT22;3735;50.136;11.062;2023-05-28T09:41:58;35.30;99.90
7388;DHT22;3735;50.136;11.062;2023-05-28T09:44:33;35.20;99.90
7388;DHT22;3735;50.136;11.062;2023-05-28T09:46:59;35.00;99.90
7388;DHT22;3735;50.136;11.062;2023-05-28T09:49:28;35.30;99.90
7388;DHT22;3735;50.136;11.062;2023-05-28T09:51:58;35.60;99.90
7388;DHT22;3735;50.136;11.062;2023-05-28T09:54:29;35.90;99.90
7388;DHT22;3735;50.136;11.062;2023-05-28T09:57:01;36.00;99.90
7388;DHT22;3735;50.136;11.062;2023-05-28T09:59:31;36.10;99.90
7388;DHT22;3735;50.136;11.062;2023-05-28T10:04:57;36.60;99.90
7388;DHT22;3735;50.136;11.062;2023-05-28T10:07:28;36.30;99.90
7388;DHT22;3735;50.136;11.062;2023-05-28T10:09:57;36.30;99.90
7388;DHT22;3735;50.136;11.062;2023-05-28T10:12:28;36.30;99.90
7388;DHT22;3735;50.136;11.062;2023-05-28T10:14:56;36.50;99.90
7388;DHT22;3735;50.136;11.062;2023-05-28T10:17:23;36.40;99.90
7388;DHT22;3735;50.136;11.062;2023-05-28T10:19:49;36.50;99.90
7388;DHT22;3735;50.136;11.062;2023-05-28T10:22:16;36.70;99.90
7388;DHT22;3735;50.136;11.062;2023-05-28T10:24:42;36.80;99.90
7388;DHT22;3735;50.136;11.062;2023-05-28T10:27:16;37.10;99.90
7388;DHT22;3735;50.136;11.062;2023-05-28T10:29:43;36.30;99.90
7388;DHT22;3735;50.136;11.062;2023-05-28T10:32:16;36.10;99.90
7388;DHT22;3735;50.136;11.062;2023-05-28T10:34:43;36.00;99.90
7388;DHT22;3735;50.136;11.062;2023-05-28T10:37:10;36.00;99.90
7388;DHT22;3735;50.136;11.062;2023-05-28T10:39:41;36.50;99.90
7388;DHT22;3735;50.136;11.062;2023-05-28T10:42:14;36.60;99.90
7388;DHT22;3735;50.136;11.062;2023-05-28T10:47:37;36.50;99.90
7388;DHT22;3735;50.136;11.062;2023-05-28T10:52:33;36.60;99.90
7388;DHT22;3735;50.136;11.062;2023-05-28T10:55:09;37.10;99.90
7388;DHT22;3735;50.136;11.062;2023-05-28T11:00:21;36.90;99.90
7388;DHT22;3735;50.136;11.062;2023-05-28T11:02:51;36.70;99.90
7388;DHT22;3735;50.136;11.062;2023-05-28T11:05:23;36.60;99.90
7388;DHT22;3735;50.136;11.062;2023-05-28T11:07:58;36.90;99.90
7388;DHT22;3735;50.136;11.062;2023-05-28T11:10:24;37.10;99.90
7388;DHT22;3735;50.136;11.062;2023-05-28T11:12:53;37.30;99.90
7388;DHT22;3735;50.136;11.062;2023-05-28T11:15:21;37.10;99.90
7388;DHT22;3735;50.136;11.062;2023-05-28T11:17:47;37.00;99.90
7388;DHT22;3735;50.136;11.062;2023-05-28T11:20:25;36.90;99.90
7388;DHT22;3735;50.136;11.062;2023-05-28T11:22:53;36.80;99.90
7388;DHT22;3735;50.136;11.062;2023-05-28T11:25:20;36.50;99.90
7388;DHT22;3735;50.136;11.062;2023-05-28T11:27:48;36.20;99.90
7388;DHT22;3735;50.136;11.062;2023-05-28T11:30:16;36.30;99.90
7388;DHT22;3735;50.136;11.062;2023-05-28T11:32:44;36.40;99.90
7388;DHT22;3735;50.136;11.062;2023-05-28T11:35:13;36.40;99.90
7388;DHT22;3735;50.136;11.062;2023-05-28T11:37:42;36.40;99.90
7388;DHT22;3735;50.136;11.062;2023-05-28T11:40:10;36.20;99.90
7388;DHT22;3735;50.136;11.062;2023-05-28T11:42:39;36.10;99.90
7388;DHT22;3735;50.136;11.062;2023-05-28T11:45:07;36.30;99.90
7388;DHT22;3735;50.136;11.062;2023-05-28T11:47:36;36.80;99.90
7388;DHT22;3735;50.136;11.062;2023-05-28T11:50:06;37.00;99.90
7388;DHT22;3735;50.136;11.062;2023-05-28T11:52:39;37.20;99.90
7388;DHT22;3735;50.136;11.062;2023-05-28T11:55:06;37.20;99.90
7388;DHT22;3735;50.136;11.062;2023-05-28T11:57:33;37.00;99.90
7388;DHT22;3735;50.136;11.062;2023-05-28T12:00:01;36.90;99.90
7388;DHT22;3735;50.136;11.062;2023-05-28T12:02:45;37.00;99.90
7388;DHT22;3735;50.136;11.062;2023-05-28T12:05:12;37.20;99.90
7388;DHT22;3735;50.136;11.062;2023-05-28T12:07:44;36.90;99.90
7388;DHT22;3735;50.136;11.062;2023-05-28T12:10:12;36.70;99.90
7388;DHT22;3735;50.136;11.062;2023-05-28T12:12:41;36.30;99.90
7388;DHT22;3735;50.136;11.062;2023-05-28T12:15:08;36.30;99.90
7388;DHT22;3735;50.136;11.062;2023-05-28T12:17:35;36.60;99.90
7388;DHT22;3735;50.136;11.062;2023-05-28T12:22:39;37.00;99.90
7388;DHT22;3735;50.136;11.062;2023-05-28T12:25:06;37.30;99.90
7388;DHT22;3735;50.136;11.062;2023-05-28T12:27:32;37.10;99.90
7388;DHT22;3735;50.136;11.062;2023-05-28T12:29:58;36.80;99.90
7388;DHT22;3735;50.136;11.062;2023-05-28T12:32:24;36.30;99.90
7388;DHT22;3735;50.136;11.062;2023-05-28T12:34:50;36.30;99.90
7388;DHT22;3735;50.136;11.062;2023-05-28T12:37:17;36.40;99.90
7388;DHT22;3735;50.136;11.062;2023-05-28T12:39:44;36.70;99.90
7388;DHT22;3735;50.136;11.062;2023-05-28T12:42:09;36.90;99.90
7388;DHT22;3735;50.136;11.062;2023-05-28T12:44:35;37.10;99.90
7388;DHT22;3735;50.136;11.062;2023-05-28T12:47:01;37.10;99.90
7388;DHT22;3735;50.136;11.062;2023-05-28T12:49:27;37.10;99.90
7388;DHT22;3735;50.136;11.062;2023-05-28T12:51:53;37.10;99.90
7388;DHT22;3735;50.136;11.062;2023-05-28T12:54:19;37.50;99.90
7388;DHT22;3735;50.136;11.062;2023-05-28T12:56:45;37.90;99.90
7388;DHT22;3735;50.136;11.062;2023-05-28T12:59:24;38.00;99.90
7388;DHT22;3735;50.136;11.062;2023-05-28T13:01:51;37.60;99.90
7388;DHT22;3735;50.136;11.062;2023-05-28T13:04:18;37.20;99.90
7388;DHT22;3735;50.136;11.062;2023-05-28T13:06:44;36.60;99.90
7388;DHT22;3735;50.136;11.062;2023-05-28T13:09:10;36.30;99.90
7388;DHT22;3735;50.136;11.062;2023-05-28T13:11:41;36.30;99.90
7388;DHT22;3735;50.136;11.062;2023-05-28T13:14:07;36.40;99.90
7388;DHT22;3735;50.136;11.062;2023-05-28T13:16:35;36.60;99.90
7388;DHT22;3735;50.136;11.062;2023-05-28T13:19:01;36.40;99.90
7388;DHT22;3735;50.136;11.062;2023-05-28T13:21:28;36.40;99.90
7388;DHT22;3735;50.136;11.062;2023-05-28T13:23:58;36.30;99.90
7388;DHT22;3735;50.136;11.062;2023-05-28T13:26:26;36.40;99.90
7388;DHT22;3735;50.136;11.062;2023-05-28T13:28:53;36.40;99.90
7388;DHT22;3735;50.136;11.062;2023-05-28T13:31:19;36.60;99.90
7388;DHT22;3735;50.136;11.062;2023-05-28T13:33:45;36.90;99.90
7388;DHT22;3735;50.136;11.062;2023-05-28T13:36:12;36.70;99.90
7388;DHT22;3735;50.136;11.062;2023-05-28T13:38:40;36.10;99.90
7388;DHT22;3735;50.136;11.062;2023-05-28T13:41:07;36.10;99.90
7388;DHT22;3735;50.136;11.062;2023-05-28T13:43:34;36.20;99.90
7388;DHT22;3735;50.136;11.062;2023-05-28T13:46:03;36.10;99.90
7388;DHT22;3735;50.136;11.062;2023-05-28T13:48:30;35.60;99.90
7388;DHT22;3735;50.136;11.062;2023-05-28T13:50:56;35.60;99.90
7388;DHT22;3735;50.136;11.062;2023-05-28T13:53:22;35.70;99.90
7388;DHT22;3735;50.136;11.062;2023-05-28T13:55:48;35.60;99.90
7388;DHT22;3735;50.136;11.062;2023-05-28T13:58:14;35.60;99.90
7388;DHT22;3735;50.136;11.062;2023-05-28T14:00:40;35.40;99.90
7388;DHT22;3735;50.136;11.062;2023-05-28T14:03:06;35.50;99.90
7388;DHT22;3735;50.136;11.062;2023-05-28T14:05:35;35.90;99.90
7388;DHT22;3735;50.136;11.062;2023-05-28T14:08:02;36.20;99.90
7388;DHT22;3735;50.136;11.062;2023-05-28T14:10:28;36.10;99.90
7388;DHT22;3735;50.136;11.062;2023-05-28T14:12:54;35.20;99.90
7388;DHT22;3735;50.136;11.062;2023-05-28T14:15:20;34.70;99.90
7388;DHT22;3735;50.136;11.062;2023-05-28T14:17:45;34.60;99.90
7388;DHT22;3735;50.136;11.062;2023-05-28T14:20:11;34.80;99.90
7388;DHT22;3735;50.136;11.062;2023-05-28T14:22:38;34.90;99.90
7388;DHT22;3735;50.136;11.062;2023-05-28T14:25:04;34.50;99.90
7388;DHT22;3735;50.136;11.062;2023-05-28T14:27:29;34.30;99.90
7388;DHT22;3735;50.136;11.062;2023-05-28T14:29:55;34.40;99.90
7388;DHT22;3735;50.136;11.062;2023-05-28T14:32:21;34.10;99.90
7388;DHT22;3735;50.136;11.062;2023-05-28T14:34:47;34.00;99.90
7388;DHT22;3735;50.136;11.062;2023-05-28T14:37:12;34.10;99.90
7388;DHT22;3735;50.136;11.062;2023-05-28T14:39:38;33.70;99.90
7388;DHT22;3735;50.136;11.062;2023-05-28T14:42:04;33.70;99.90
7388;DHT22;3735;50.136;11.062;2023-05-28T14:44:31;33.70;99.90
7388;DHT22;3735;50.136;11.062;2023-05-28T14:46:57;34.00;99.90
7388;DHT22;3735;50.136;11.062;2023-05-28T14:49:23;34.20;99.90
7388;DHT22;3735;50.136;11.062;2023-05-28T14:51:53;34.50;99.90
7388;DHT22;3735;50.136;11.062;2023-05-28T14:54:19;34.40;99.90
7388;DHT22;3735;50.136;11.062;2023-05-28T14:56:45;34.10;99.90
7388;DHT22;3735;50.136;11.062;2023-05-28T14:59:11;34.00;99.90
7388;DHT22;3735;50.136;11.062;2023-05-28T15:01:36;33.70;99.90
7388;DHT22;3735;50.136;11.062;2023-05-28T15:04:02;33.70;99.90
7388;DHT22;3735;50.136;11.062;2023-05-28T15:06:28;34.00;99.90
7388;DHT22;3735;50.136;11.062;2023-05-28T15:08:54;33.90;99.90
7388;DHT22;3735;50.136;11.062;2023-05-28T15:11:19;33.80;99.90
7388;DHT22;3735;50.136;11.062;2023-05-28T15:13:47;33.90;99.90
7388;DHT22;3735;50.136;11.062;2023-05-28T15:16:13;33.60;99.90
7388;DHT22;3735;50.136;11.062;2023-05-28T15:18:39;33.50;99.90
7388;DHT22;3735;50.136;11.062;2023-05-28T15:21:05;33.40;99.90
7388;DHT22;3735;50.136;11.062;2023-05-28T15:23:32;33.10;99.90
7388;DHT22;3735;50.136;11.062;2023-05-28T15:25:58;33.10;99.90
7388;DHT22;3735;50.136;11.062;2023-05-28T15:28:24;32.90;99.90
7388;DHT22;3735;50.136;11.062;2023-05-28T15:30:50;32.50;99.90
7388;DHT22;3735;50.136;11.062;2023-05-28T15:33:16;32.50;99.90
7388;DHT22;3735;50.136;11.062;2023-05-28T15:35:42;32.30;99.90
7388;DHT22;3735;50.136;11.062;2023-05-28T15:38:08;32.20;99.90
7388;DHT22;3735;50.136;11.062;2023-05-28T15:40:35;31.90;99.90
7388;DHT22;3735;50.136;11.062;2023-05-28T15:43:03;31.70;99.90
7388;DHT22;3735;50.136;11.062;2023-05-28T15:45:30;31.50;99.90
7388;DHT22;3735;50.136;11.062;2023-05-28T15:47:56;30.40;99.90
7388;DHT22;3735;50.136;11.062;2023-05-28T15:50:22;29.50;99.90
7388;DHT22;3735;50.136;11.062;2023-05-28T15:52:49;28.80;99.90
7388;DHT22;3735;50.136;11.062;2023-05-28T15:55:16;27.70;99.90
7388;DHT22;3735;50.136;11.062;2023-05-28T15:57:42;27.10;99.90
7388;DHT22;3735;50.136;11.062;2023-05-28T16:00:08;26.60;99.90
7388;DHT22;3735;50.136;11.062;2023-05-28T16:02:37;26.40;99.90